Enter the Airport ICAO Code

Search by Airport or City

Current Weather

MMSP | Ponciano Arriaga International Airport

San Luis Potosí City, San Luis Potosí, Mexico

Last Update 35 Minutes Ago

Mostly Cloudy Sky

Temperature of 11 ºC

Light to Moderate Winds from East

Temperature

11 ºC

Dew Point Temperature

06 ºC

Relative Humidity

71.35 %

Wind Direction

East (110º, Without Significant Variations)

Wind Velocity

13 km/h (07 kt)

Gusts

None

Visibility

Reduced to 8 Miles

Sea Level Pressure

30.40 inHg (Inches of Mercury)

Layers of Clouds

60% to 90% of Sky Covered from 610 mts (2000 ft) Above Ground Level.

METAR MMSP 090943Z 11007KT 8SM BKN020 11/06 A3040 RMK 8/500

Weather Forecast

MMSP | Ponciano Arriaga International Airport

San Luis Potosí City, San Luis Potosí, Mexico

Forecast valid for the next 26 Hours

From now on it is expected:

Mist

Calm Wind

In 6 hours it is expected the begining of:

Partly Cloudy Sky

Moderate Winds from NorthEast

In 16 hours it is expected the begining of:

Mostly Cloudy Sky

Light to Moderate Winds from East

Maximum Temperature

21 ºC in 10 Hours

Minimum Temperature

10 ºC in 2 Hours

TAF MMSP 090304Z 0906/1012 02005KT 5SM HZ OVC012 TX21/0920Z TN10/0912Z FM090900 00000KT 3SM BR OVC010 FM091600 03010KT P6SM SCT020 FM100200 08005KT P6SM SCT020 BKN250